Time;durP1;ratioP1;P1;durP2;ratioP2;P2;SDS_P1;SDS_P2;PMS_P1;PMS_P2;Temp;Humidity;BMP_temperature;BMP_pressure;BME280_temperature;BME280_humidity;BME280_pressure;Samples;Min_cycle;Max_cycle;Signal;HPM_P1;HPM_P2
2022/09/22 00:00:24;;;;;;;1.47;0.93;;;7.70;99.90;;;;;;4988210;28;20476;-48
2022/09/22 00:02:56;;;;;;;1.40;1.20;;;7.60;99.90;;;;;;4988094;28;20452;-51
2022/09/22 00:05:23;;;;;;;1.40;1.30;;;7.30;99.90;;;;;;4989462;28;20470;-48
2022/09/22 00:07:51;;;;;;;1.20;0.87;;;7.20;99.90;;;;;;4991271;28;20487;-51
2022/09/22 00:10:20;;;;;;;1.90;1.53;;;7.20;99.90;;;;;;4991482;28;20456;-51
2022/09/22 00:12:47;;;;;;;2.03;1.30;;;7.20;99.90;;;;;;4991457;28;20546;-48
2022/09/22 00:15:14;;;;;;;1.97;1.47;;;7.30;99.90;;;;;;4991476;28;21109;-48
2022/09/22 00:17:41;;;;;;;1.10;0.90;;;7.40;99.90;;;;;;4991385;28;21049;-48
2022/09/22 00:20:11;;;;;;;1.40;1.20;;;7.30;99.90;;;;;;4991439;28;20472;-48
2022/09/22 00:22:38;;;;;;;1.67;1.47;;;7.40;99.90;;;;;;4991307;28;20868;-47
2022/09/22 00:25:06;;;;;;;1.47;1.10;;;7.30;99.90;;;;;;4990558;28;20966;-46
2022/09/22 00:27:33;;;;;;;2.07;1.33;;;7.30;99.90;;;;;;4991137;28;20571;-46
2022/09/22 00:30:00;;;;;;;1.40;1.30;;;7.40;99.90;;;;;;4991396;28;20479;-47
2022/09/22 00:32:27;;;;;;;1.30;1.00;;;7.30;99.90;;;;;;4991383;28;20810;-46
2022/09/22 00:34:54;;;;;;;2.33;1.10;;;7.40;99.90;;;;;;4991065;28;20535;-47
2022/09/22 00:37:22;;;;;;;2.03;1.20;;;7.40;99.90;;;;;;4991340;28;20460;-46
2022/09/22 00:39:49;;;;;;;1.20;1.10;;;7.30;99.90;;;;;;4991626;28;20878;-47
2022/09/22 00:42:17;;;;;;;1.70;1.20;;;7.40;99.90;;;;;;4990824;28;20534;-46
2022/09/22 00:44:44;;;;;;;2.23;1.10;;;7.30;99.90;;;;;;4990814;28;20499;-46
2022/09/22 00:47:28;;;;;;;1.67;1.23;;;7.40;99.90;;;;;;4990896;28;20494;-46
2022/09/22 00:50:03;;;;;;;2.20;1.23;;;7.30;99.90;;;;;;4991478;28;20976;-46
2022/09/22 00:52:36;;;;;;;1.30;1.20;;;7.30;99.90;;;;;;4990893;28;20534;-46
2022/09/22 00:55:12;;;;;;;4.50;1.70;;;7.30;99.90;;;;;;4990619;28;20547;-48
2022/09/22 00:57:41;;;;;;;11.03;5.60;;;7.10;99.90;;;;;;4990990;28;20503;-46
2022/09/22 01:00:10;;;;;;;8.97;5.97;;;6.90;99.90;;;;;;4992091;28;20483;-45
2022/09/22 01:02:38;;;;;;;7.10;3.73;;;7.00;99.90;;;;;;4991526;28;20523;-47
2022/09/22 01:05:06;;;;;;;5.33;3.40;;;7.10;99.90;;;;;;4990362;28;20477;-45
2022/09/22 01:07:36;;;;;;;2.47;1.90;;;7.10;99.90;;;;;;4990715;28;20492;-46
2022/09/22 01:10:03;;;;;;;2.13;1.70;;;7.10;99.90;;;;;;4990728;28;20497;-46
2022/09/22 01:12:31;;;;;;;2.77;1.43;;;7.10;99.90;;;;;;4990597;28;20959;-48
2022/09/22 01:15:19;;;;;;;3.23;1.77;;;7.10;99.90;;;;;;4989939;28;20468;-45
2022/09/22 01:17:54;;;;;;;2.13;1.47;;;7.00;99.90;;;;;;4990317;28;20804;-46
2022/09/22 01:20:54;;;;;;;1.60;1.50;;;6.90;99.90;;;;;;4990553;28;20530;-48
2022/09/22 01:23:54;;;;;;;1.70;1.33;;;7.00;99.90;;;;;;4990172;28;20448;-47
2022/09/22 01:26:49;;;;;;;1.90;1.53;;;7.10;99.90;;;;;;4991408;28;20559;-47
2022/09/22 01:29:47;;;;;;;1.37;1.27;;;7.10;99.90;;;;;;4989945;28;20563;-47
2022/09/22 01:32:20;;;;;;;1.23;1.10;;;7.10;99.90;;;;;;4990526;28;20440;-48
2022/09/22 01:34:56;;;;;;;1.40;1.20;;;6.80;99.90;;;;;;4990276;28;20533;-47
2022/09/22 01:37:26;;;;;;;1.90;1.30;;;6.40;99.90;;;;;;4990332;28;20495;-47
2022/09/22 01:39:59;;;;;;;1.50;1.40;;;6.20;99.90;;;;;;4990102;28;20475;-48
2022/09/22 01:42:32;;;;;;;2.43;1.20;;;6.50;99.90;;;;;;4990279;28;20446;-47
2022/09/22 01:45:06;;;;;;;1.20;1.00;;;6.70;99.90;;;;;;4990051;28;20459;-47
2022/09/22 01:47:39;;;;;;;1.70;0.90;;;6.90;99.90;;;;;;4990944;28;20527;-48
2022/09/22 01:50:13;;;;;;;1.70;1.00;;;6.90;99.90;;;;;;4990284;28;20452;-50
2022/09/22 01:52:41;;;;;;;1.63;1.20;;;6.60;99.90;;;;;;4989875;28;20966;-47
2022/09/22 01:55:12;;;;;;;2.50;1.60;;;6.50;99.90;;;;;;4990023;28;20476;-47
2022/09/22 01:57:46;;;;;;;1.70;1.53;;;6.50;99.90;;;;;;4990008;28;20499;-49
2022/09/22 02:00:14;;;;;;;1.73;1.37;;;6.50;99.90;;;;;;4990217;28;20539;-51
2022/09/22 02:02:50;;;;;;;2.60;1.43;;;6.50;99.90;;;;;;4989818;28;20825;-47
2022/09/22 02:05:22;;;;;;;1.70;1.47;;;6.50;99.90;;;;;;4989577;28;20547;-47
2022/09/22 02:07:52;;;;;;;1.50;1.10;;;6.70;99.90;;;;;;4989722;28;20567;-48
2022/09/22 02:10:24;;;;;;;2.80;1.30;;;6.70;99.90;;;;;;4989761;28;20456;-47
2022/09/22 02:12:52;;;;;;;8.10;5.50;;;6.70;99.90;;;;;;4989277;28;20551;-50
2022/09/22 02:18:11;;;;;;;3.93;1.80;;;6.40;99.90;;;;;;4989819;28;20423;-47
2022/09/22 02:20:39;;;;;;;2.10;1.73;;;6.50;99.90;;;;;;4989626;28;20456;-48
2022/09/22 02:23:06;;;;;;;4.13;1.63;;;6.50;99.90;;;;;;4989099;28;20455;-49
2022/09/22 02:25:33;;;;;;;1.60;1.30;;;6.50;99.90;;;;;;4988942;28;20476;-48
2022/09/22 02:28:01;;;;;;;2.83;1.37;;;6.60;99.90;;;;;;4988920;28;20516;-47
2022/09/22 02:30:28;;;;;;;1.60;1.50;;;6.50;99.90;;;;;;4989776;28;20445;-49
2022/09/22 02:32:57;;;;;;;1.43;1.33;;;6.40;99.90;;;;;;4989081;28;20493;-51
2022/09/22 02:35:29;;;;;;;1.90;1.20;;;6.10;99.90;;;;;;4989594;28;20440;-48
2022/09/22 02:38:02;;;;;;;1.70;1.20;;;6.30;99.90;;;;;;4989378;28;20464;-48
2022/09/22 02:40:32;;;;;;;1.00;0.80;;;6.70;99.90;;;;;;4988942;28;20506;-47
2022/09/22 02:43:06;;;;;;;2.97;2.53;;;6.70;99.90;;;;;;4989041;28;20926;-48
2022/09/22 02:45:40;;;;;;;1.20;0.90;;;6.50;99.90;;;;;;4989061;28;20538;-47
2022/09/22 02:48:13;;;;;;;1.57;1.23;;;6.70;99.90;;;;;;4989167;28;20476;-48
2022/09/22 02:50:43;;;;;;;1.57;1.30;;;6.50;99.90;;;;;;4989294;28;20480;-48
2022/09/22 02:53:14;;;;;;;2.10;1.10;;;6.30;99.90;;;;;;4988816;28;20469;-47
2022/09/22 02:55:42;;;;;;;1.60;1.20;;;6.20;99.90;;;;;;4989223;28;20501;-47
2022/09/22 02:58:09;;;;;;;1.50;1.40;;;6.30;99.90;;;;;;4988916;28;20523;-48
2022/09/22 03:00:37;;;;;;;1.83;1.43;;;6.30;99.90;;;;;;4989123;28;20451;-47
2022/09/22 03:03:04;;;;;;;1.50;1.27;;;6.30;99.90;;;;;;4988886;28;20462;-48
2022/09/22 03:05:31;;;;;;;1.90;1.60;;;6.20;99.90;;;;;;4988695;28;20543;-46
2022/09/22 03:07:59;;;;;;;1.53;1.10;;;6.30;99.90;;;;;;4989045;28;20482;-46
2022/09/22 03:10:26;;;;;;;1.40;1.30;;;6.30;99.90;;;;;;4988803;28;20440;-46
2022/09/22 03:12:53;;;;;;;1.30;1.20;;;6.30;99.90;;;;;;4988673;28;20544;-45
2022/09/22 03:15:20;;;;;;;2.23;1.23;;;6.50;99.90;;;;;;4988570;28;20448;-46
2022/09/22 03:17:47;;;;;;;1.30;1.10;;;6.40;99.90;;;;;;4988640;28;20503;-46
2022/09/22 03:20:14;;;;;;;1.20;1.03;;;6.20;99.90;;;;;;4987825;28;20479;-46
2022/09/22 03:22:41;;;;;;;1.27;1.17;;;6.20;99.90;;;;;;4988771;28;20523;-46
2022/09/22 03:25:10;;;;;;;2.03;1.30;;;6.40;99.90;;;;;;4987707;28;20528;-47
2022/09/22 03:27:38;;;;;;;1.77;1.20;;;6.30;99.90;;;;;;4988555;28;20993;-46
2022/09/22 03:30:06;;;;;;;1.43;1.20;;;6.20;99.90;;;;;;4988509;28;20572;-46
2022/09/22 03:32:34;;;;;;;2.07;1.33;;;6.00;99.90;;;;;;4989098;28;20480;-46
2022/09/22 03:35:01;;;;;;;5.80;2.17;;;6.00;99.90;;;;;;4988332;28;20448;-50
2022/09/22 03:37:28;;;;;;;1.60;1.50;;;6.30;99.90;;;;;;4988422;28;20502;-46
2022/09/22 03:39:55;;;;;;;1.30;1.20;;;6.50;99.90;;;;;;4990492;28;20449;-46
2022/09/22 03:42:23;;;;;;;1.27;0.97;;;6.30;99.90;;;;;;4992113;28;20543;-46
2022/09/22 03:44:50;;;;;;;6.07;1.40;;;6.40;99.90;;;;;;4992261;28;20497;-46
2022/09/22 03:47:18;;;;;;;1.90;1.60;;;6.20;99.90;;;;;;4992596;28;20578;-46
2022/09/22 03:49:45;;;;;;;2.57;1.47;;;5.90;99.90;;;;;;4992195;28;20482;-46
2022/09/22 03:52:12;;;;;;;1.50;1.30;;;5.90;99.90;;;;;;4992132;28;20491;-49
2022/09/22 03:54:39;;;;;;;5.20;1.40;;;6.10;99.90;;;;;;4991743;28;20472;-46
2022/09/22 03:57:06;;;;;;;2.23;1.60;;;6.00;99.90;;;;;;4992096;28;20476;-47
2022/09/22 03:59:34;;;;;;;1.30;1.10;;;5.70;99.90;;;;;;4991892;28;20532;-47
2022/09/22 04:02:03;;;;;;;1.80;1.57;;;5.60;99.90;;;;;;4991827;28;20491;-48
2022/09/22 04:04:31;;;;;;;3.00;2.30;;;5.60;99.90;;;;;;4991358;28;20964;-46
2022/09/22 04:06:58;;;;;;;2.90;1.77;;;5.40;99.90;;;;;;4991532;28;21014;-46
2022/09/22 04:09:24;;;;;;;2.83;2.40;;;5.30;99.90;;;;;;4991132;28;20749;-46
2022/09/22 04:11:51;;;;;;;2.23;1.50;;;5.60;99.90;;;;;;4991352;28;20480;-47
2022/09/22 04:14:18;;;;;;;2.50;2.30;;;5.70;99.90;;;;;;4991087;28;20903;-46
2022/09/22 04:16:47;;;;;;;4.57;2.53;;;5.80;99.90;;;;;;4991205;28;20868;-50
2022/09/22 04:19:14;;;;;;;4.30;2.60;;;5.90;99.90;;;;;;4991362;28;20479;-49
2022/09/22 04:21:42;;;;;;;2.87;2.43;;;5.80;99.90;;;;;;4991240;28;20448;-46
2022/09/22 04:24:10;;;;;;;3.30;1.70;;;5.80;99.90;;;;;;4991104;28;20452;-47
2022/09/22 04:26:37;;;;;;;2.60;1.80;;;5.80;99.90;;;;;;4991489;28;20468;-47
2022/09/22 04:29:04;;;;;;;6.23;4.77;;;5.80;99.90;;;;;;4991257;28;20475;-46
2022/09/22 04:31:31;;;;;;;4.20;2.80;;;5.80;99.90;;;;;;4991368;28;20487;-47
2022/09/22 04:33:59;;;;;;;3.10;2.90;;;5.80;99.90;;;;;;4990818;28;20480;-46
2022/09/22 04:36:26;;;;;;;2.93;2.67;;;5.90;99.90;;;;;;4990997;28;20565;-47
2022/09/22 04:38:54;;;;;;;3.00;2.70;;;6.00;99.90;;;;;;4991349;28;20528;-47
2022/09/22 04:41:21;;;;;;;2.37;2.17;;;5.80;99.90;;;;;;4991337;28;20543;-47
2022/09/22 04:43:48;;;;;;;1.67;1.50;;;5.90;99.90;;;;;;4990743;28;20984;-47
2022/09/22 04:46:14;;;;;;;2.00;1.07;;;5.80;99.90;;;;;;4990913;28;20583;-46
2022/09/22 04:48:41;;;;;;;2.23;1.40;;;5.80;99.90;;;;;;4990977;28;20488;-50
2022/09/22 04:51:09;;;;;;;2.20;1.80;;;6.00;99.90;;;;;;4990442;28;20541;-47
2022/09/22 04:53:36;;;;;;;4.60;2.50;;;6.00;99.90;;;;;;4990949;28;20480;-47
2022/09/22 04:56:03;;;;;;;1.97;1.80;;;6.10;99.90;;;;;;4990995;28;20506;-47
2022/09/22 04:58:30;;;;;;;4.20;1.67;;;6.00;99.90;;;;;;4991148;28;20498;-48
2022/09/22 05:01:02;;;;;;;2.73;2.00;;;5.90;99.90;;;;;;4991403;28;20448;-46
2022/09/22 05:03:29;;;;;;;3.80;3.23;;;5.90;99.90;;;;;;4991301;28;20513;-48
2022/09/22 05:05:56;;;;;;;5.90;4.20;;;5.80;99.90;;;;;;4990774;28;20506;-47
2022/09/22 05:08:24;;;;;;;2.37;2.17;;;5.70;99.90;;;;;;4990860;28;20497;-50
2022/09/22 05:10:52;;;;;;;2.70;1.80;;;5.70;99.90;;;;;;4991055;28;20489;-48
2022/09/22 05:13:19;;;;;;;1.87;1.60;;;5.50;99.90;;;;;;4990284;28;20451;-48
2022/09/22 05:15:45;;;;;;;2.10;1.70;;;5.70;99.90;;;;;;4991018;28;20531;-48
2022/09/22 05:18:13;;;;;;;3.10;2.80;;;5.90;99.90;;;;;;4990494;28;20880;-47
2022/09/22 05:20:40;;;;;;;2.23;2.03;;;5.90;99.90;;;;;;4990676;28;20446;-48
2022/09/22 05:23:07;;;;;;;2.13;1.83;;;5.90;99.90;;;;;;4989984;28;20494;-48
2022/09/22 05:25:35;;;;;;;1.80;1.57;;;6.00;99.90;;;;;;4989964;28;20958;-49
2022/09/22 05:28:02;;;;;;;3.73;1.90;;;5.90;99.90;;;;;;4990394;28;20478;-46
2022/09/22 05:30:29;;;;;;;2.17;1.80;;;5.80;99.90;;;;;;4990708;28;20555;-46
2022/09/22 05:32:56;;;;;;;2.70;1.90;;;5.60;99.90;;;;;;4990316;28;20517;-47
2022/09/22 05:35:25;;;;;;;2.17;1.73;;;5.50;99.90;;;;;;4991287;28;20535;-46
2022/09/22 05:37:53;;;;;;;1.70;1.60;;;5.50;99.90;;;;;;4990541;28;21011;-46
2022/09/22 05:40:22;;;;;;;2.10;1.53;;;5.50;99.90;;;;;;4990076;28;20447;-45
2022/09/22 05:42:52;;;;;;;2.03;1.83;;;5.50;99.90;;;;;;4990740;28;20458;-46
2022/09/22 05:45:20;;;;;;;2.20;1.30;;;5.50;99.90;;;;;;4990437;28;20704;-46
2022/09/22 05:47:47;;;;;;;2.10;1.40;;;5.50;99.90;;;;;;4990137;28;20484;-46
2022/09/22 05:50:15;;;;;;;1.83;1.73;;;5.60;99.90;;;;;;4990092;28;20519;-46
2022/09/22 05:52:42;;;;;;;2.50;1.80;;;5.70;99.90;;;;;;4989975;28;20448;-47
2022/09/22 05:55:10;;;;;;;2.03;1.93;;;5.90;99.90;;;;;;4989957;28;20854;-46
2022/09/22 05:57:38;;;;;;;2.60;1.43;;;6.20;99.90;;;;;;4990309;28;20507;-46
2022/09/22 06:00:08;;;;;;;2.73;2.00;;;6.30;99.90;;;;;;4990394;28;20523;-48
2022/09/22 06:02:35;;;;;;;3.53;2.37;;;6.20;99.90;;;;;;4989005;28;20440;-47
2022/09/22 06:05:02;;;;;;;3.87;1.80;;;6.10;99.90;;;;;;4989896;28;20475;-47
2022/09/22 06:07:29;;;;;;;2.90;2.60;;;6.20;99.90;;;;;;4989852;28;20555;-47
2022/09/22 06:09:56;;;;;;;2.60;1.70;;;6.10;99.90;;;;;;4990079;28;20510;-49
2022/09/22 06:12:23;;;;;;;3.87;1.70;;;6.10;99.90;;;;;;4990016;28;20881;-47
2022/09/22 06:14:50;;;;;;;2.47;2.17;;;6.00;99.90;;;;;;4989471;28;20531;-46
2022/09/22 06:17:18;;;;;;;3.03;2.10;;;6.00;99.90;;;;;;4990158;28;20538;-49
2022/09/22 06:19:48;;;;;;;2.00;1.80;;;5.90;99.90;;;;;;4989870;28;20481;-48
2022/09/22 06:22:15;;;;;;;3.77;2.00;;;5.80;99.90;;;;;;4989873;28;20505;-50
2022/09/22 06:24:43;;;;;;;2.40;1.80;;;5.70;99.90;;;;;;4989368;28;20448;-47
2022/09/22 06:27:09;;;;;;;2.17;1.97;;;5.70;99.90;;;;;;4989701;28;20525;-49
2022/09/22 06:29:37;;;;;;;2.67;1.73;;;5.60;99.90;;;;;;4989526;28;20516;-48
2022/09/22 06:32:06;;;;;;;3.13;2.33;;;5.60;99.90;;;;;;4989561;28;20800;-49
2022/09/22 06:34:35;;;;;;;3.43;2.60;;;5.60;99.90;;;;;;4989331;28;20949;-47
2022/09/22 06:37:02;;;;;;;2.70;2.40;;;5.60;99.90;;;;;;4989485;28;20499;-47
2022/09/22 06:39:28;;;;;;;2.83;2.03;;;5.60;99.90;;;;;;4989521;28;20468;-48
2022/09/22 06:41:56;;;;;;;2.53;2.30;;;5.70;99.90;;;;;;4989483;28;20463;-47
2022/09/22 06:44:24;;;;;;;1.70;1.53;;;5.70;99.90;;;;;;4988813;28;20545;-48
2022/09/22 06:46:51;;;;;;;3.20;1.90;;;5.80;99.90;;;;;;4989274;28;20941;-46
2022/09/22 06:49:19;;;;;;;1.67;1.30;;;5.80;99.90;;;;;;4989461;28;20571;-47
2022/09/22 06:51:48;;;;;;;3.27;1.67;;;5.80;99.90;;;;;;4989074;28;20947;-47
2022/09/22 06:54:15;;;;;;;2.10;1.90;;;5.80;99.90;;;;;;4988822;28;20567;-47
2022/09/22 06:56:42;;;;;;;5.37;4.70;;;5.90;99.90;;;;;;4988896;28;20473;-46
2022/09/22 06:59:11;;;;;;;4.13;3.70;;;5.70;99.90;;;;;;4989160;28;20444;-45
2022/09/22 07:01:39;;;;;;;3.20;2.90;;;5.60;99.90;;;;;;4989221;28;20463;-47
2022/09/22 07:04:06;;;;;;;6.17;3.50;;;5.50;99.90;;;;;;4988994;28;20541;-47
2022/09/22 07:06:34;;;;;;;4.13;2.60;;;5.40;99.90;;;;;;4989646;28;20562;-47
2022/09/22 07:09:02;;;;;;;4.90;3.00;;;5.50;99.90;;;;;;4988970;28;20455;-47
2022/09/22 07:11:29;;;;;;;2.80;2.40;;;5.50;99.90;;;;;;4989189;28;20521;-47
2022/09/22 07:13:57;;;;;;;2.10;1.90;;;5.50;99.90;;;;;;4988410;28;20948;-47
2022/09/22 07:16:26;;;;;;;5.30;2.10;;;5.50;99.90;;;;;;4988766;28;20475;-47
2022/09/22 07:18:54;;;;;;;2.20;1.93;;;5.50;99.90;;;;;;4989138;28;20589;-47
2022/09/22 07:21:24;;;;;;;2.57;2.30;;;5.60;99.90;;;;;;4989140;28;20531;-48
2022/09/22 07:23:53;;;;;;;3.30;2.97;;;5.60;99.90;;;;;;4988799;28;20523;-46
2022/09/22 07:26:25;;;;;;;4.07;2.63;;;5.50;99.90;;;;;;4988667;28;20543;-47
2022/09/22 07:28:54;;;;;;;2.93;2.63;;;5.60;99.90;;;;;;4988670;28;20444;-48
2022/09/22 07:31:22;;;;;;;7.03;2.93;;;5.50;99.90;;;;;;4988778;28;20519;-46
2022/09/22 07:33:49;;;;;;;2.80;2.50;;;5.30;99.90;;;;;;4988404;28;20873;-47
2022/09/22 07:36:18;;;;;;;5.10;2.53;;;5.10;99.90;;;;;;4988517;28;20526;-47
2022/09/22 07:38:48;;;;;;;2.37;2.17;;;5.10;99.90;;;;;;4988797;28;20447;-47
2022/09/22 07:41:17;;;;;;;2.30;2.00;;;5.30;99.90;;;;;;4988390;28;20492;-48
2022/09/22 07:43:48;;;;;;;3.60;1.97;;;5.60;99.90;;;;;;4988046;28;20486;-47
2022/09/22 07:46:15;;;;;;;2.00;1.70;;;5.80;99.90;;;;;;4989623;28;20553;-47
2022/09/22 07:48:46;;;;;;;2.17;1.80;;;6.10;99.90;;;;;;4988115;28;20548;-48
2022/09/22 07:51:19;;;;;;;1.80;1.53;;;6.20;99.90;;;;;;4988594;28;20900;-47
2022/09/22 07:53:47;;;;;;;1.87;1.53;;;6.40;99.90;;;;;;4988066;28;21022;-47
2022/09/22 07:56:16;;;;;;;5.73;1.80;;;6.60;99.90;;;;;;4988265;28;21005;-47
2022/09/22 07:58:49;;;;;;;2.90;2.23;;;6.60;99.90;;;;;;4988157;28;20473;-47
2022/09/22 08:01:17;;;;;;;1.97;1.77;;;6.80;99.90;;;;;;4988282;28;20444;-47
2022/09/22 08:03:45;;;;;;;1.97;1.63;;;6.90;99.90;;;;;;4988010;28;20860;-47
2022/09/22 08:06:13;;;;;;;2.67;1.70;;;6.50;99.90;;;;;;4988317;28;20472;-47
2022/09/22 08:08:42;;;;;;;2.90;2.00;;;6.60;99.90;;;;;;4988137;28;20985;-47
2022/09/22 08:11:13;;;;;;;1.30;1.10;;;6.80;99.90;;;;;;4987967;28;20511;-48
2022/09/22 08:13:41;;;;;;;3.83;1.80;;;7.00;99.90;;;;;;4987621;28;20988;-50
2022/09/22 08:16:10;;;;;;;2.00;1.80;;;7.00;99.90;;;;;;4988153;28;20468;-50
2022/09/22 08:18:38;;;;;;;1.83;1.47;;;7.00;99.90;;;;;;4988147;28;20560;-46
2022/09/22 08:21:06;;;;;;;1.60;1.50;;;7.00;99.90;;;;;;4988365;28;20929;-47
2022/09/22 08:23:34;;;;;;;2.73;1.50;;;7.10;99.90;;;;;;4987560;28;20567;-47
2022/09/22 08:26:06;;;;;;;1.40;1.07;;;7.20;99.90;;;;;;4988621;28;20898;-46
2022/09/22 08:28:33;;;;;;;1.90;1.60;;;7.20;99.90;;;;;;4991235;28;20471;-47
2022/09/22 08:31:00;;;;;;;1.60;1.50;;;7.40;99.90;;;;;;4991203;28;20913;-46
2022/09/22 08:33:30;;;;;;;2.60;1.57;;;7.60;99.90;;;;;;4990777;28;20471;-46
2022/09/22 08:36:02;;;;;;;1.83;1.40;;;7.50;99.90;;;;;;4991055;28;20468;-46
2022/09/22 08:38:31;;;;;;;1.80;1.40;;;7.50;99.90;;;;;;4991204;28;20455;-46
2022/09/22 08:41:18;;;;;;;1.73;1.60;;;7.70;99.90;;;;;;4990886;28;20897;-46
2022/09/22 08:43:49;;;;;;;3.50;1.80;;;7.70;99.90;;;;;;4990732;28;20507;-47
2022/09/22 08:46:16;;;;;;;1.43;1.30;;;7.70;99.90;;;;;;4990831;28;20529;-46
2022/09/22 08:51:52;;;;;;;2.10;1.43;;;7.90;99.90;;;;;;4930844;29;20230;-47
2022/09/22 08:54:22;;;;;;;2.27;1.40;;;8.00;99.90;;;;;;4979116;28;20480;-47
2022/09/22 08:57:02;;;;;;;2.53;2.07;;;8.10;99.90;;;;;;4990726;28;20472;-47
2022/09/22 08:59:35;;;;;;;3.30;1.83;;;8.20;99.90;;;;;;4991066;28;20447;-52
2022/09/22 09:02:32;;;;;;;2.13;1.53;;;8.30;99.90;;;;;;4990719;28;20467;-48
2022/09/22 09:05:44;;;;;;;2.63;1.70;;;8.40;99.90;;;;;;4990555;28;20479;-48
2022/09/22 09:08:36;;;;;;;1.93;1.47;;;8.50;99.90;;;;;;4990538;28;20950;-48
2022/09/22 09:11:13;;;;;;;2.13;1.33;;;8.50;99.90;;;;;;4991074;28;20589;-47
2022/09/22 09:13:54;;;;;;;1.43;1.27;;;8.70;99.90;;;;;;4989689;28;20942;-52
2022/09/22 09:16:33;;;;;;;2.13;1.27;;;8.80;99.90;;;;;;4991356;28;20513;-47
2022/09/22 09:19:06;;;;;;;1.73;1.37;;;9.00;99.90;;;;;;4989774;28;20558;-48
2022/09/22 09:21:39;;;;;;;3.60;1.40;;;9.10;99.90;;;;;;4989782;28;20483;-49
2022/09/22 09:24:21;;;;;;;2.90;1.50;;;9.30;99.90;;;;;;4989920;28;20452;-48
2022/09/22 09:26:49;;;;;;;1.60;1.20;;;9.40;99.90;;;;;;4990568;28;20560;-49
2022/09/22 09:29:22;;;;;;;1.50;1.20;;;9.30;99.90;;;;;;4990307;28;20452;-48
2022/09/22 09:31:52;;;;;;;1.47;1.20;;;9.20;99.90;;;;;;4989952;28;20516;-50
2022/09/22 09:34:22;;;;;;;1.40;1.30;;;9.30;99.90;;;;;;4990540;28;20451;-48
2022/09/22 09:36:58;;;;;;;1.90;1.17;;;9.40;99.90;;;;;;4988517;28;20559;-48
2022/09/22 09:39:30;;;;;;;1.67;1.37;;;9.50;99.90;;;;;;4988701;28;20487;-48
2022/09/22 09:41:58;;;;;;;1.50;1.20;;;9.60;99.90;;;;;;4988664;28;20483;-48
2022/09/22 09:44:29;;;;;;;2.60;1.37;;;9.50;99.90;;;;;;4988889;28;20785;-48
2022/09/22 09:47:02;;;;;;;2.07;1.50;;;9.60;99.90;;;;;;4989594;28;20511;-48
2022/09/22 09:49:29;;;;;;;1.30;1.17;;;9.60;99.90;;;;;;4989803;28;20480;-48
2022/09/22 09:52:00;;;;;;;1.93;1.23;;;9.70;99.90;;;;;;4989755;28;20516;-48
2022/09/22 09:54:28;;;;;;;1.90;1.40;;;9.90;99.90;;;;;;4989835;28;20476;-49
2022/09/22 09:57:07;;;;;;;1.83;1.40;;;10.10;99.90;;;;;;4989508;28;20496;-48
2022/09/22 10:02:22;;;;;;;1.40;1.00;;;10.30;99.90;;;;;;4989887;28;20501;-51
2022/09/22 10:04:51;;;;;;;2.27;0.97;;;10.20;99.90;;;;;;4989880;28;20686;-51
2022/09/22 10:07:23;;;;;;;2.33;1.50;;;10.40;99.90;;;;;;4989481;28;20530;-50
2022/09/22 10:09:51;;;;;;;1.20;1.00;;;10.60;99.90;;;;;;4990011;28;20449;-50
2022/09/22 10:12:28;;;;;;;1.90;1.47;;;10.60;99.90;;;;;;4989653;28;20876;-48
2022/09/22 10:14:56;;;;;;;1.87;1.57;;;10.70;99.90;;;;;;4989098;28;20480;-49
2022/09/22 10:17:27;;;;;;;1.50;1.20;;;10.90;99.90;;;;;;4989607;28;20504;-48
2022/09/22 10:20:16;;;;;;;1.40;1.20;;;10.90;99.90;;;;;;4989244;28;20477;-51
2022/09/22 10:22:45;;;;;;;1.57;1.23;;;10.90;99.90;;;;;;4989703;28;20534;-49
2022/09/22 10:25:22;;;;;;;1.50;1.13;;;11.00;99.90;;;;;;4988982;28;20472;-49
2022/09/22 10:28:03;;;;;;;1.60;1.00;;;11.00;99.90;;;;;;4989175;28;20471;-50
2022/09/22 10:30:32;;;;;;;2.30;1.23;;;11.10;99.90;;;;;;4987793;28;20564;-50
2022/09/22 10:33:14;;;;;;;2.23;1.43;;;11.20;99.90;;;;;;4987333;28;20471;-50
2022/09/22 10:35:44;;;;;;;1.77;1.47;;;11.20;99.90;;;;;;4986052;28;20509;-50
2022/09/22 10:38:19;;;;;;;2.20;1.40;;;11.40;99.90;;;;;;4987231;28;20524;-50
2022/09/22 10:40:50;;;;;;;1.40;1.23;;;11.40;99.90;;;;;;4987627;28;20524;-51
2022/09/22 10:43:36;;;;;;;2.20;1.50;;;11.40;99.90;;;;;;4985140;28;20963;-50
2022/09/22 10:46:19;;;;;;;2.20;1.50;;;11.50;99.90;;;;;;4986635;28;20848;-49
2022/09/22 10:48:49;;;;;;;1.50;1.30;;;11.50;99.90;;;;;;4987287;28;20493;-51
2022/09/22 10:51:23;;;;;;;1.40;1.20;;;11.70;99.90;;;;;;4989185;28;20499;-48
2022/09/22 10:54:15;;;;;;;2.50;1.53;;;11.70;99.90;;;;;;4988679;28;20505;-48
2022/09/22 10:56:46;;;;;;;1.47;1.37;;;11.90;99.90;;;;;;4988761;28;20506;-49
2022/09/22 10:59:36;;;;;;;2.93;1.40;;;12.00;99.90;;;;;;4988435;28;20965;-48
2022/09/22 11:02:49;;;;;;;1.70;1.27;;;12.00;99.90;;;;;;4988753;28;20442;-50
2022/09/22 11:14:05;;;;;;;1.87;1.27;;;12.20;99.90;;;;;;4986999;28;20438;-50
2022/09/22 11:17:00;;;;;;;1.50;1.10;;;12.40;99.90;;;;;;4987125;28;20499;-51
2022/09/22 11:19:42;;;;;;;3.33;1.20;;;12.60;99.90;;;;;;4987130;28;20453;-49
2022/09/22 11:22:37;;;;;;;1.30;1.00;;;12.50;99.90;;;;;;4988138;28;20496;-50
2022/09/22 11:25:20;;;;;;;1.50;1.30;;;12.50;99.90;;;;;;4987787;28;20938;-48
2022/09/22 11:28:01;;;;;;;2.50;1.30;;;12.70;99.90;;;;;;4987690;28;20473;-51
2022/09/22 11:30:32;;;;;;;1.53;1.20;;;13.00;99.90;;;;;;4988354;28;20450;-49
2022/09/22 11:33:34;;;;;;;2.43;1.30;;;13.10;99.90;;;;;;4988555;28;20732;-48
2022/09/22 11:36:13;;;;;;;1.77;1.30;;;13.40;99.90;;;;;;4988095;28;20887;-49
2022/09/22 11:38:59;;;;;;;1.83;1.00;;;13.30;99.90;;;;;;4988618;28;20480;-49
2022/09/22 11:41:30;;;;;;;3.40;1.43;;;13.30;99.90;;;;;;4987262;28;20443;-49
2022/09/22 11:44:30;;;;;;;1.67;1.10;;;13.40;99.90;;;;;;4987034;28;20526;-50
2022/09/22 11:47:17;;;;;;;1.60;1.00;;;13.50;99.90;;;;;;4987517;28;20920;-48
2022/09/22 11:50:00;;;;;;;1.93;1.53;;;13.50;99.90;;;;;;4988050;28;20537;-48
2022/09/22 11:52:42;;;;;;;1.70;1.27;;;13.70;99.90;;;;;;4988328;28;21016;-50
2022/09/22 11:55:23;;;;;;;2.47;1.03;;;13.80;99.90;;;;;;4988569;28;20454;-49
2022/09/22 11:57:55;;;;;;;3.47;1.17;;;13.60;99.90;;;;;;4988490;28;20766;-48
2022/09/22 12:00:24;;;;;;;4.70;1.30;;;13.60;99.90;;;;;;4990032;28;20534;-48
2022/09/22 12:02:57;;;;;;;1.60;1.40;;;13.90;99.90;;;;;;4991283;28;20926;-51
2022/09/22 12:05:29;;;;;;;2.80;1.73;;;13.90;99.90;;;;;;4992047;28;20455;-49
2022/09/22 12:08:01;;;;;;;1.73;1.33;;;13.80;99.90;;;;;;4991592;28;20964;-49
2022/09/22 12:10:34;;;;;;;3.77;1.90;;;13.90;99.90;;;;;;4991731;28;20530;-49
2022/09/22 12:13:02;;;;;;;2.30;1.40;;;13.90;99.90;;;;;;4991185;28;20442;-49
2022/09/22 12:15:36;;;;;;;2.33;1.43;;;13.90;99.90;;;;;;4991671;28;20454;-49
2022/09/22 12:18:11;;;;;;;2.27;1.60;;;13.90;99.90;;;;;;4991498;28;20950;-49
2022/09/22 12:20:48;;;;;;;1.83;1.63;;;13.90;99.90;;;;;;4991475;28;20444;-49
2022/09/22 12:23:34;;;;;;;2.50;1.67;;;14.00;99.90;;;;;;4991163;28;20455;-50
2022/09/22 12:26:04;;;;;;;1.70;1.40;;;14.00;99.90;;;;;;4991409;28;20499;-48
2022/09/22 12:28:37;;;;;;;1.83;1.23;;;14.10;99.90;;;;;;4991464;28;20501;-50
2022/09/22 12:31:11;;;;;;;2.33;1.47;;;14.20;99.90;;;;;;4991470;28;20475;-49
2022/09/22 12:33:45;;;;;;;2.10;1.47;;;14.40;99.90;;;;;;4991461;28;20528;-50
2022/09/22 12:36:12;;;;;;;1.97;1.33;;;14.20;99.90;;;;;;4991361;28;20472;-51
2022/09/22 12:38:39;;;;;;;2.70;1.40;;;14.10;99.90;;;;;;4991281;28;20523;-48
2022/09/22 12:41:06;;;;;;;2.57;1.30;;;14.20;99.90;;;;;;4991175;28;20440;-49
2022/09/22 12:43:35;;;;;;;1.43;1.27;;;14.40;99.90;;;;;;4990808;28;20455;-52
2022/09/22 12:46:16;;;;;;;2.27;1.47;;;14.40;99.90;;;;;;4990052;28;20558;-51
2022/09/22 12:48:45;;;;;;;1.80;1.20;;;14.50;99.90;;;;;;4990443;28;20475;-48
2022/09/22 12:51:33;;;;;;;3.40;1.43;;;14.60;99.90;;;;;;4990710;28;20925;-49
2022/09/22 12:54:46;;;;;;;1.63;1.20;;;14.50;99.90;;;;;;4990222;28;20484;-49
2022/09/22 12:57:26;;;;;;;3.30;1.10;;;14.60;99.90;;;;;;4990844;28;20464;-49
2022/09/22 13:00:12;;;;;;;5.33;1.43;;;14.50;99.90;;;;;;4990733;28;20476;-51
2022/09/22 13:02:44;;;;;;;1.93;1.23;;;14.50;99.90;;;;;;4990639;28;20941;-51
2022/09/22 13:05:31;;;;;;;1.50;1.40;;;14.50;99.90;;;;;;4990148;28;20489;-49
2022/09/22 13:07:58;;;;;;;2.60;1.53;;;14.60;99.90;;;;;;4990796;28;20509;-49
2022/09/22 13:10:51;;;;;;;2.57;1.77;;;14.70;99.90;;;;;;4990775;28;20532;-49
2022/09/22 13:13:39;;;;;;;1.83;1.20;;;14.60;99.90;;;;;;4989545;28;20482;-49
2022/09/22 13:16:34;;;;;;;1.80;1.37;;;14.80;99.90;;;;;;4989713;28;20559;-49
2022/09/22 13:19:03;;;;;;;3.10;2.70;;;15.00;99.90;;;;;;4990402;28;20540;-49
2022/09/22 13:21:32;;;;;;;7.07;4.57;;;15.00;99.90;;;;;;4990584;28;20487;-52
2022/09/22 13:24:01;;;;;;;2.80;1.77;;;15.00;99.90;;;;;;4990269;28;20505;-48
2022/09/22 13:26:30;;;;;;;2.10;1.53;;;15.10;99.90;;;;;;4990722;28;20551;-49
2022/09/22 13:29:02;;;;;;;1.93;1.40;;;15.00;99.90;;;;;;4990299;28;20539;-49
2022/09/22 13:31:36;;;;;;;3.30;1.40;;;14.90;99.90;;;;;;4990638;28;20508;-49
2022/09/22 13:34:24;;;;;;;3.00;1.77;;;15.00;99.90;;;;;;4990051;28;20448;-51
2022/09/22 13:36:54;;;;;;;1.50;1.17;;;15.30;99.90;;;;;;4990741;28;20483;-49